sensor_id;sensor_type;location;lat;lon;timestamp;pressure;altitude;pressure_sealevel;temperature;humidity
32330;BME280;18807;52.434;13.238;2022-11-22T00:02:04;99890.97;;;-1.00;100.00
32330;BME280;18807;52.434;13.238;2022-11-22T00:09:40;99863.50;;;-1.08;100.00
32330;BME280;18807;52.434;13.238;2022-11-22T00:17:14;99870.94;;;-1.17;100.00
32330;BME280;18807;52.434;13.238;2022-11-22T00:24:50;99859.97;;;-1.27;100.00
32330;BME280;18807;52.434;13.238;2022-11-22T00:32:25;99866.88;;;-1.29;100.00
32330;BME280;18807;52.434;13.238;2022-11-22T00:40:00;99858.75;;;-1.35;100.00
32330;BME280;18807;52.434;13.238;2022-11-22T00:47:35;99852.53;;;-1.37;100.00
32330;BME280;18807;52.434;13.238;2022-11-22T00:55:11;99837.88;;;-1.34;100.00
32330;BME280;18807;52.434;13.238;2022-11-22T01:02:44;99840.94;;;-1.42;100.00
32330;BME280;18807;52.434;13.238;2022-11-22T01:10:20;99842.53;;;-1.46;100.00
32330;BME280;18807;52.434;13.238;2022-11-22T01:17:54;99837.00;;;-1.52;100.00
32330;BME280;18807;52.434;13.238;2022-11-22T01:25:29;99848.25;;;-1.54;100.00
32330;BME280;18807;52.434;13.238;2022-11-22T01:33:03;99841.19;;;-1.55;100.00
32330;BME280;18807;52.434;13.238;2022-11-22T01:40:38;99835.50;;;-1.64;100.00
32330;BME280;18807;52.434;13.238;2022-11-22T01:48:22;99847.59;;;-1.68;100.00
32330;BME280;18807;52.434;13.238;2022-11-22T01:55:58;99830.06;;;-1.69;100.00
32330;BME280;18807;52.434;13.238;2022-11-22T02:03:34;99845.84;;;-1.67;100.00
32330;BME280;18807;52.434;13.238;2022-11-22T02:11:11;99840.53;;;-1.69;100.00
32330;BME280;18807;52.434;13.238;2022-11-22T02:18:45;99838.13;;;-1.64;100.00
32330;BME280;18807;52.434;13.238;2022-11-22T02:26:23;99819.66;;;-1.67;100.00
32330;BME280;18807;52.434;13.238;2022-11-22T02:33:58;99810.78;;;-1.71;100.00
32330;BME280;18807;52.434;13.238;2022-11-22T02:41:35;99799.34;;;-1.73;100.00
32330;BME280;18807;52.434;13.238;2022-11-22T02:49:10;99801.28;;;-1.69;100.00
32330;BME280;18807;52.434;13.238;2022-11-22T02:56:46;99805.31;;;-1.58;100.00
32330;BME280;18807;52.434;13.238;2022-11-22T03:04:20;99785.50;;;-1.70;100.00
32330;BME280;18807;52.434;13.238;2022-11-22T03:11:58;99778.50;;;-1.71;100.00
32330;BME280;18807;52.434;13.238;2022-11-22T03:19:32;99775.72;;;-1.74;100.00
32330;BME280;18807;52.434;13.238;2022-11-22T03:27:07;99781.88;;;-1.74;100.00
32330;BME280;18807;52.434;13.238;2022-11-22T03:34:41;99773.94;;;-1.75;100.00
32330;BME280;18807;52.434;13.238;2022-11-22T03:42:17;99769.66;;;-1.73;100.00
32330;BME280;18807;52.434;13.238;2022-11-22T03:49:53;99762.94;;;-1.68;100.00
32330;BME280;18807;52.434;13.238;2022-11-22T03:57:29;99764.72;;;-1.67;100.00
32330;BME280;18807;52.434;13.238;2022-11-22T04:05:04;99744.19;;;-1.77;100.00
32330;BME280;18807;52.434;13.238;2022-11-22T04:12:39;99754.78;;;-1.74;100.00
32330;BME280;18807;52.434;13.238;2022-11-22T04:20:15;99753.88;;;-1.75;100.00
32330;BME280;18807;52.434;13.238;2022-11-22T04:28:09;99769.59;;;-1.75;100.00
32330;BME280;18807;52.434;13.238;2022-11-22T04:35:44;99749.78;;;-1.70;100.00
32330;BME280;18807;52.434;13.238;2022-11-22T04:43:21;99753.31;;;-1.69;100.00
32330;BME280;18807;52.434;13.238;2022-11-22T04:51:13;99730.69;;;-1.67;100.00
32330;BME280;18807;52.434;13.238;2022-11-22T04:59:06;99722.63;;;-1.72;100.00
32330;BME280;18807;52.434;13.238;2022-11-22T05:06:40;99720.22;;;-1.67;100.00
32330;BME280;18807;52.434;13.238;2022-11-22T05:14:15;99734.44;;;-1.62;100.00
32330;BME280;18807;52.434;13.238;2022-11-22T05:21:49;99719.13;;;-1.53;100.00
32330;BME280;18807;52.434;13.238;2022-11-22T05:29:24;99725.16;;;-1.56;100.00
32330;BME280;18807;52.434;13.238;2022-11-22T05:36:58;99732.16;;;-1.55;100.00
32330;BME280;18807;52.434;13.238;2022-11-22T05:44:33;99733.13;;;-1.53;100.00
32330;BME280;18807;52.434;13.238;2022-11-22T05:52:07;99747.38;;;-1.46;100.00
32330;BME280;18807;52.434;13.238;2022-11-22T05:59:42;99756.34;;;-1.41;100.00
32330;BME280;18807;52.434;13.238;2022-11-22T06:07:16;99751.91;;;-1.42;100.00
32330;BME280;18807;52.434;13.238;2022-11-22T06:14:52;99748.63;;;-1.38;100.00
32330;BME280;18807;52.434;13.238;2022-11-22T06:22:26;99760.25;;;-1.32;100.00
32330;BME280;18807;52.434;13.238;2022-11-22T06:30:01;99770.00;;;-1.29;100.00
32330;BME280;18807;52.434;13.238;2022-11-22T06:37:36;99773.69;;;-1.24;100.00
32330;BME280;18807;52.434;13.238;2022-11-22T06:45:11;99778.34;;;-1.19;100.00
32330;BME280;18807;52.434;13.238;2022-11-22T06:52:49;99801.22;;;-1.15;100.00
32330;BME280;18807;52.434;13.238;2022-11-22T07:00:24;99784.72;;;-1.12;100.00
32330;BME280;18807;52.434;13.238;2022-11-22T07:07:58;99789.41;;;-1.05;100.00
32330;BME280;18807;52.434;13.238;2022-11-22T07:15:52;99798.22;;;-1.03;100.00
32330;BME280;18807;52.434;13.238;2022-11-22T07:23:26;99810.69;;;-0.98;100.00
32330;BME280;18807;52.434;13.238;2022-11-22T07:31:03;99807.47;;;-0.92;100.00
32330;BME280;18807;52.434;13.238;2022-11-22T07:38:37;99797.19;;;-0.88;100.00
32330;BME280;18807;52.434;13.238;2022-11-22T07:46:16;99792.22;;;-0.82;100.00
32330;BME280;18807;52.434;13.238;2022-11-22T07:53:53;99768.00;;;-0.76;100.00
32330;BME280;18807;52.434;13.238;2022-11-22T08:01:29;99758.66;;;-0.70;100.00
32330;BME280;18807;52.434;13.238;2022-11-22T08:09:03;99749.19;;;-0.66;100.00
32330;BME280;18807;52.434;13.238;2022-11-22T08:16:39;99758.91;;;-0.64;100.00
32330;BME280;18807;52.434;13.238;2022-11-22T08:24:13;99753.06;;;-0.58;100.00
32330;BME280;18807;52.434;13.238;2022-11-22T08:31:48;99753.19;;;-0.55;100.00
32330;BME280;18807;52.434;13.238;2022-11-22T08:39:22;99762.25;;;-0.47;100.00
32330;BME280;18807;52.434;13.238;2022-11-22T08:46:57;99780.88;;;-0.41;100.00
32330;BME280;18807;52.434;13.238;2022-11-22T08:54:31;99788.78;;;-0.40;100.00
32330;BME280;18807;52.434;13.238;2022-11-22T09:02:11;99788.16;;;-0.34;100.00
32330;BME280;18807;52.434;13.238;2022-11-22T09:09:44;99809.31;;;-0.30;100.00
32330;BME280;18807;52.434;13.238;2022-11-22T09:17:20;99805.88;;;-0.29;100.00
32330;BME280;18807;52.434;13.238;2022-11-22T09:24:54;99801.03;;;-0.20;100.00
32330;BME280;18807;52.434;13.238;2022-11-22T09:32:29;99796.09;;;-0.12;100.00
32330;BME280;18807;52.434;13.238;2022-11-22T09:40:06;99817.47;;;-0.03;100.00
32330;BME280;18807;52.434;13.238;2022-11-22T09:47:47;99828.44;;;0.09;100.00
32330;BME280;18807;52.434;13.238;2022-11-22T09:55:29;99827.88;;;0.16;100.00
32330;BME280;18807;52.434;13.238;2022-11-22T10:03:14;99829.91;;;0.23;100.00
32330;BME280;18807;52.434;13.238;2022-11-22T10:10:52;99824.84;;;0.28;100.00
32330;BME280;18807;52.434;13.238;2022-11-22T10:18:34;99816.47;;;0.38;100.00
32330;BME280;18807;52.434;13.238;2022-11-22T10:26:19;99818.56;;;0.46;100.00
32330;BME280;18807;52.434;13.238;2022-11-22T10:34:00;99827.59;;;0.53;100.00
32330;BME280;18807;52.434;13.238;2022-11-22T10:41:45;99823.25;;;0.53;100.00
32330;BME280;18807;52.434;13.238;2022-11-22T10:49:40;99814.94;;;0.65;100.00
32330;BME280;18807;52.434;13.238;2022-11-22T10:57:24;99821.38;;;0.73;100.00
32330;BME280;18807;52.434;13.238;2022-11-22T11:05:05;99815.47;;;0.78;100.00
32330;BME280;18807;52.434;13.238;2022-11-22T11:12:43;99804.34;;;0.85;100.00
32330;BME280;18807;52.434;13.238;2022-11-22T11:20:22;99797.63;;;0.93;100.00
32330;BME280;18807;52.434;13.238;2022-11-22T11:28:01;99792.66;;;1.01;100.00
32330;BME280;18807;52.434;13.238;2022-11-22T11:35:39;99784.22;;;1.09;100.00
32330;BME280;18807;52.434;13.238;2022-11-22T11:43:17;99783.59;;;1.16;100.00
32330;BME280;18807;52.434;13.238;2022-11-22T11:51:04;99790.03;;;1.24;100.00
32330;BME280;18807;52.434;13.238;2022-11-22T11:58:39;99802.44;;;1.28;100.00
32330;BME280;18807;52.434;13.238;2022-11-22T12:06:16;99801.75;;;1.34;100.00
32330;BME280;18807;52.434;13.238;2022-11-22T12:13:53;99804.53;;;1.38;100.00
32330;BME280;18807;52.434;13.238;2022-11-22T12:21:55;99787.19;;;1.43;100.00
32330;BME280;18807;52.434;13.238;2022-11-22T12:29:34;99759.22;;;1.47;100.00
32330;BME280;18807;52.434;13.238;2022-11-22T12:37:13;99770.94;;;1.55;100.00
32330;BME280;18807;52.434;13.238;2022-11-22T12:44:53;99778.19;;;1.62;100.00
32330;BME280;18807;52.434;13.238;2022-11-22T12:52:36;99786.22;;;1.66;100.00
32330;BME280;18807;52.434;13.238;2022-11-22T13:00:13;99768.91;;;1.73;100.00
32330;BME280;18807;52.434;13.238;2022-11-22T13:07:55;99755.00;;;1.77;100.00
32330;BME280;18807;52.434;13.238;2022-11-22T13:15:35;99756.06;;;1.82;100.00
32330;BME280;18807;52.434;13.238;2022-11-22T13:23:22;99737.78;;;1.86;100.00
32330;BME280;18807;52.434;13.238;2022-11-22T13:31:11;99767.72;;;1.90;100.00
32330;BME280;18807;52.434;13.238;2022-11-22T13:38:47;99763.50;;;1.95;100.00
32330;BME280;18807;52.434;13.238;2022-11-22T13:46:51;99751.31;;;1.97;100.00
32330;BME280;18807;52.434;13.238;2022-11-22T13:55:01;99758.41;;;1.99;100.00
32330;BME280;18807;52.434;13.238;2022-11-22T14:02:36;99760.06;;;1.97;100.00
32330;BME280;18807;52.434;13.238;2022-11-22T14:10:27;99754.00;;;1.98;100.00
32330;BME280;18807;52.434;13.238;2022-11-22T14:18:19;99759.34;;;2.01;100.00
32330;BME280;18807;52.434;13.238;2022-11-22T14:26:14;99768.31;;;2.08;100.00
32330;BME280;18807;52.434;13.238;2022-11-22T14:34:13;99757.84;;;2.09;100.00
32330;BME280;18807;52.434;13.238;2022-11-22T14:41:49;99762.34;;;2.12;100.00
32330;BME280;18807;52.434;13.238;2022-11-22T14:49:34;99765.00;;;2.14;100.00
32330;BME280;18807;52.434;13.238;2022-11-22T14:57:18;99767.59;;;2.12;100.00
32330;BME280;18807;52.434;13.238;2022-11-22T15:04:58;99764.97;;;2.12;100.00
32330;BME280;18807;52.434;13.238;2022-11-22T15:21:15;99772.88;;;2.12;100.00
32330;BME280;18807;52.434;13.238;2022-11-22T15:29:16;99789.53;;;2.13;100.00
32330;BME280;18807;52.434;13.238;2022-11-22T15:37:14;99789.50;;;2.11;100.00
32330;BME280;18807;52.434;13.238;2022-11-22T15:45:12;99797.44;;;2.13;100.00
32330;BME280;18807;52.434;13.238;2022-11-22T15:53:18;99792.22;;;2.14;100.00
32330;BME280;18807;52.434;13.238;2022-11-22T16:01:16;99795.75;;;2.15;100.00
32330;BME280;18807;52.434;13.238;2022-11-22T16:08:54;99780.88;;;2.15;100.00
32330;BME280;18807;52.434;13.238;2022-11-22T16:16:31;99781.75;;;2.16;100.00
32330;BME280;18807;52.434;13.238;2022-11-22T16:24:09;99797.50;;;2.14;100.00
32330;BME280;18807;52.434;13.238;2022-11-22T16:31:49;99808.03;;;2.14;100.00
32330;BME280;18807;52.434;13.238;2022-11-22T16:39:23;99812.41;;;2.14;100.00
32330;BME280;18807;52.434;13.238;2022-11-22T16:46:59;99826.34;;;2.11;100.00
32330;BME280;18807;52.434;13.238;2022-11-22T16:54:33;99832.44;;;2.08;100.00
32330;BME280;18807;52.434;13.238;2022-11-22T17:02:11;99831.56;;;2.09;100.00
32330;BME280;18807;52.434;13.238;2022-11-22T17:09:45;99840.28;;;2.07;100.00
32330;BME280;18807;52.434;13.238;2022-11-22T17:17:21;99851.72;;;2.08;100.00
32330;BME280;18807;52.434;13.238;2022-11-22T17:24:54;99859.63;;;2.08;100.00
32330;BME280;18807;52.434;13.238;2022-11-22T17:32:30;99861.38;;;2.08;100.00
32330;BME280;18807;52.434;13.238;2022-11-22T17:40:05;99870.16;;;2.08;100.00
32330;BME280;18807;52.434;13.238;2022-11-22T17:47:41;99873.59;;;2.06;100.00
32330;BME280;18807;52.434;13.238;2022-11-22T17:55:14;99869.94;;;2.01;100.00
32330;BME280;18807;52.434;13.238;2022-11-22T18:02:50;99887.72;;;2.08;100.00
32330;BME280;18807;52.434;13.238;2022-11-22T18:10:24;99891.16;;;2.06;100.00
32330;BME280;18807;52.434;13.238;2022-11-22T18:17:59;99890.19;;;2.04;100.00
32330;BME280;18807;52.434;13.238;2022-11-22T18:25:35;99895.41;;;2.02;100.00
32330;BME280;18807;52.434;13.238;2022-11-22T18:33:10;99892.78;;;2.02;100.00
32330;BME280;18807;52.434;13.238;2022-11-22T18:40:45;99908.47;;;1.99;100.00
32330;BME280;18807;52.434;13.238;2022-11-22T18:48:20;99905.78;;;1.98;100.00
32330;BME280;18807;52.434;13.238;2022-11-22T18:55:54;99904.94;;;1.99;100.00
32330;BME280;18807;52.434;13.238;2022-11-22T19:03:29;99908.69;;;2.05;100.00
32330;BME280;18807;52.434;13.238;2022-11-22T19:11:04;99903.16;;;1.98;100.00
32330;BME280;18807;52.434;13.238;2022-11-22T19:18:39;99922.53;;;2.00;100.00
32330;BME280;18807;52.434;13.238;2022-11-22T19:26:16;99929.66;;;2.02;100.00
32330;BME280;18807;52.434;13.238;2022-11-22T19:33:53;99940.22;;;2.04;100.00
32330;BME280;18807;52.434;13.238;2022-11-22T19:41:27;99948.28;;;2.08;100.00
32330;BME280;18807;52.434;13.238;2022-11-22T19:49:04;99935.06;;;2.07;100.00
32330;BME280;18807;52.434;13.238;2022-11-22T19:56:38;99931.53;;;2.06;100.00
32330;BME280;18807;52.434;13.238;2022-11-22T20:04:14;99928.84;;;2.05;100.00
32330;BME280;18807;52.434;13.238;2022-11-22T20:11:48;99933.28;;;2.06;100.00
32330;BME280;18807;52.434;13.238;2022-11-22T20:19:23;99937.44;;;1.99;100.00
32330;BME280;18807;52.434;13.238;2022-11-22T20:27:04;99947.97;;;1.99;100.00
32330;BME280;18807;52.434;13.238;2022-11-22T20:34:39;99957.53;;;1.97;100.00
32330;BME280;18807;52.434;13.238;2022-11-22T20:42:13;99946.25;;;2.00;100.00
32330;BME280;18807;52.434;13.238;2022-11-22T20:50:09;99938.19;;;1.95;100.00
32330;BME280;18807;52.434;13.238;2022-11-22T20:57:43;99939.75;;;1.90;100.00
32330;BME280;18807;52.434;13.238;2022-11-22T21:05:18;99936.19;;;1.90;100.00
32330;BME280;18807;52.434;13.238;2022-11-22T21:12:52;99930.78;;;1.85;100.00
32330;BME280;18807;52.434;13.238;2022-11-22T21:20:28;99951.63;;;1.79;100.00
32330;BME280;18807;52.434;13.238;2022-11-22T21:28:02;99956.78;;;1.76;100.00
32330;BME280;18807;52.434;13.238;2022-11-22T21:35:38;99959.19;;;1.70;100.00
32330;BME280;18807;52.434;13.238;2022-11-22T21:43:16;99949.25;;;1.63;100.00
32330;BME280;18807;52.434;13.238;2022-11-22T21:50:55;99952.63;;;1.59;100.00
32330;BME280;18807;52.434;13.238;2022-11-22T21:58:29;99955.78;;;1.49;100.00
32330;BME280;18807;52.434;13.238;2022-11-22T22:06:05;99960.91;;;1.46;100.00
32330;BME280;18807;52.434;13.238;2022-11-22T22:13:39;99941.31;;;1.38;100.00
32330;BME280;18807;52.434;13.238;2022-11-22T22:21:16;99943.72;;;1.32;100.00
32330;BME280;18807;52.434;13.238;2022-11-22T22:28:51;99963.94;;;1.33;100.00
32330;BME280;18807;52.434;13.238;2022-11-22T22:36:26;99962.91;;;1.30;100.00
32330;BME280;18807;52.434;13.238;2022-11-22T22:44:00;99965.53;;;1.30;100.00
32330;BME280;18807;52.434;13.238;2022-11-22T22:51:36;99961.69;;;1.22;100.00
32330;BME280;18807;52.434;13.238;2022-11-22T22:59:09;99959.75;;;1.16;100.00
32330;BME280;18807;52.434;13.238;2022-11-22T23:06:45;99965.97;;;1.18;100.00
32330;BME280;18807;52.434;13.238;2022-11-22T23:14:20;99963.03;;;1.11;100.00
32330;BME280;18807;52.434;13.238;2022-11-22T23:21:56;99966.59;;;1.13;100.00
32330;BME280;18807;52.434;13.238;2022-11-22T23:29:30;99973.56;;;1.11;100.00
32330;BME280;18807;52.434;13.238;2022-11-22T23:37:05;99978.75;;;1.09;100.00
32330;BME280;18807;52.434;13.238;2022-11-22T23:44:39;99965.44;;;1.05;100.00
32330;BME280;18807;52.434;13.238;2022-11-22T23:52:15;99968.97;;;1.05;100.00
32330;BME280;18807;52.434;13.238;2022-11-22T23:59:48;99951.38;;;1.04;100.00
